createdAt,value
2023-01-21T00:01:03.450Z,27.15
2023-01-21T00:03:30.101Z,30.00
2023-01-21T00:05:58.216Z,26.92
2023-01-21T00:08:25.429Z,28.55
2023-01-21T00:10:52.323Z,27.95
2023-01-21T00:13:18.942Z,27.40
2023-01-21T00:15:45.727Z,29.80
2023-01-21T00:18:12.420Z,27.85
2023-01-21T00:20:39.161Z,29.38
2023-01-21T00:23:06.301Z,25.33
2023-01-21T00:25:33.132Z,28.83
2023-01-21T00:28:02.468Z,29.83
2023-01-21T00:30:30.580Z,31.20
2023-01-21T00:32:57.207Z,27.33
2023-01-21T00:35:23.929Z,29.63
2023-01-21T00:37:53.517Z,30.17
2023-01-21T00:40:20.746Z,29.02
2023-01-21T00:42:47.612Z,28.35
2023-01-21T00:45:14.736Z,31.77
2023-01-21T00:47:41.689Z,30.48
2023-01-21T00:50:09.329Z,30.55
2023-01-21T00:52:36.362Z,33.80
2023-01-21T00:55:03.189Z,28.35
2023-01-21T00:57:29.802Z,30.08
2023-01-21T00:59:56.509Z,28.23
2023-01-21T01:02:23.139Z,31.20
2023-01-21T01:04:49.797Z,25.15
2023-01-21T01:07:16.596Z,21.25
2023-01-21T01:09:43.259Z,29.95
2023-01-21T01:12:09.865Z,26.10
2023-01-21T01:14:36.572Z,32.75
2023-01-21T01:17:03.261Z,31.25
2023-01-21T01:19:29.916Z,30.45
2023-01-21T01:21:56.607Z,33.80
2023-01-21T01:24:23.208Z,30.23
2023-01-21T01:26:49.816Z,32.20
2023-01-21T01:29:16.483Z,27.98
2023-01-21T01:31:44.215Z,28.27
2023-01-21T01:34:11.128Z,27.70
2023-01-21T01:36:37.851Z,27.63
2023-01-21T01:39:05.273Z,20.65
2023-01-21T01:41:35.054Z,30.95
2023-01-21T01:44:25.941Z,29.65
2023-01-21T01:46:54.608Z,31.42
2023-01-21T01:49:21.997Z,30.30
2023-01-21T01:51:51.574Z,31.13
2023-01-21T01:54:31.671Z,30.80
2023-01-21T01:57:02.326Z,26.92
2023-01-21T01:59:30.931Z,22.30
2023-01-21T02:02:01.795Z,29.92
2023-01-21T02:04:34.319Z,29.17
2023-01-21T02:07:01.320Z,25.13
2023-01-21T02:09:30.127Z,25.45
2023-01-21T02:12:02.210Z,27.35
2023-01-21T02:14:31.191Z,30.88
2023-01-21T02:17:13.001Z,27.50
2023-01-21T02:19:59.193Z,28.20
2023-01-21T02:23:10.888Z,24.23
2023-01-21T02:26:05.406Z,25.25
2023-01-21T02:29:05.712Z,23.97
2023-01-21T02:32:07.793Z,25.15
2023-01-21T02:34:39.852Z,27.13
2023-01-21T02:37:19.960Z,27.55
2023-01-21T02:40:11.404Z,28.70
2023-01-21T02:43:00.782Z,23.48
2023-01-21T02:45:36.349Z,26.13
2023-01-21T02:48:13.073Z,24.95
2023-01-21T02:50:49.743Z,25.92
2023-01-21T02:53:34.303Z,27.42
2023-01-21T02:56:13.975Z,25.30
2023-01-21T02:58:53.451Z,22.75
2023-01-21T03:01:43.415Z,23.73
2023-01-21T03:04:50.904Z,17.85
2023-01-21T03:07:33.917Z,26.23
2023-01-21T03:10:17.387Z,24.17
2023-01-21T03:13:03.368Z,25.65
2023-01-21T03:15:55.042Z,23.75
2023-01-21T03:18:28.029Z,20.80
2023-01-21T03:21:13.117Z,25.67
2023-01-21T03:23:43.806Z,16.48
2023-01-21T03:26:15.715Z,19.00
2023-01-21T03:28:46.892Z,25.80
2023-01-21T03:31:28.607Z,23.33
2023-01-21T03:34:00.125Z,24.10
2023-01-21T03:36:50.823Z,25.20
2023-01-21T03:39:42.767Z,24.25
2023-01-21T03:42:10.432Z,24.95
2023-01-21T03:44:39.369Z,24.30
2023-01-21T03:47:31.285Z,23.88
2023-01-21T03:50:04.185Z,24.52
2023-01-21T03:52:31.002Z,25.75
2023-01-21T03:54:57.785Z,23.27
2023-01-21T03:57:24.476Z,22.55
2023-01-21T03:59:51.470Z,23.52
2023-01-21T04:02:20.509Z,24.35
2023-01-21T04:04:48.014Z,24.15
2023-01-21T04:07:15.732Z,19.90
2023-01-21T04:09:43.011Z,24.10
2023-01-21T04:12:09.776Z,28.55
2023-01-21T04:14:36.474Z,24.60
2023-01-21T04:17:03.362Z,24.05
2023-01-21T04:19:30.200Z,25.58
2023-01-21T04:21:56.989Z,23.77
2023-01-21T04:24:23.825Z,21.85
2023-01-21T04:26:50.682Z,24.70
2023-01-21T04:29:17.427Z,26.17
2023-01-21T04:31:44.483Z,21.98
2023-01-21T04:34:11.377Z,22.92
2023-01-21T04:36:38.311Z,22.33
2023-01-21T04:39:05.050Z,23.42
2023-01-21T04:41:31.848Z,23.88
2023-01-21T04:43:58.552Z,22.38
2023-01-21T04:46:25.395Z,23.08
2023-01-21T04:48:52.165Z,26.17
2023-01-21T04:51:18.900Z,24.05
2023-01-21T04:53:45.591Z,27.27
2023-01-21T04:56:12.424Z,19.77
2023-01-21T04:58:39.173Z,20.92
2023-01-21T05:01:06.065Z,22.17
2023-01-21T05:03:32.868Z,23.95
2023-01-21T05:05:59.581Z,20.80
2023-01-21T05:08:26.428Z,23.80
2023-01-21T05:10:53.052Z,23.98
2023-01-21T05:13:19.685Z,23.30
2023-01-21T05:15:46.514Z,24.45
2023-01-21T05:18:13.349Z,26.83
2023-01-21T05:20:40.143Z,23.80
2023-01-21T05:23:06.790Z,25.75
2023-01-21T05:25:33.570Z,27.05
2023-01-21T05:28:00.312Z,21.63
2023-01-21T05:30:27.140Z,24.90
2023-01-21T05:32:54.890Z,14.35
2023-01-21T05:35:23.345Z,22.15
2023-01-21T05:37:50.512Z,24.00
2023-01-21T05:40:18.274Z,25.55
2023-01-21T05:42:46.608Z,21.73
2023-01-21T05:45:14.074Z,21.52
2023-01-21T05:47:40.880Z,25.13
2023-01-21T05:50:08.407Z,23.17
2023-01-21T05:52:35.462Z,25.23
2023-01-21T05:55:03.052Z,23.65
2023-01-21T05:57:30.247Z,23.80
2023-01-21T05:59:57.085Z,24.75
2023-01-21T06:02:24.019Z,25.02
2023-01-21T06:04:50.726Z,18.80
2023-01-21T06:07:17.647Z,19.52
2023-01-21T06:09:44.497Z,14.65
2023-01-21T06:12:11.249Z,25.00
2023-01-21T06:14:37.912Z,18.35
2023-01-21T06:17:04.652Z,21.35
2023-01-21T06:19:31.366Z,26.85
2023-01-21T06:21:58.296Z,27.42
2023-01-21T06:24:24.986Z,26.52
2023-01-21T06:26:53.509Z,25.63
2023-01-21T06:29:20.126Z,19.52
2023-01-21T06:31:47.071Z,22.27
2023-01-21T06:34:14.030Z,27.48
2023-01-21T06:36:42.770Z,26.02
2023-01-21T06:39:10.976Z,24.13
2023-01-21T06:41:37.853Z,25.15
2023-01-21T06:44:04.843Z,22.75
2023-01-21T06:46:31.747Z,19.02
2023-01-21T06:48:58.531Z,26.75
2023-01-21T06:51:25.410Z,24.85
2023-01-21T06:53:52.140Z,24.48
2023-01-21T06:56:18.935Z,23.98
2023-01-21T06:58:45.674Z,27.52
2023-01-21T07:01:12.452Z,28.30
2023-01-21T07:03:39.277Z,24.10
2023-01-21T07:06:06.584Z,18.98
2023-01-21T07:08:33.304Z,27.27
2023-01-21T07:11:00.083Z,27.35
2023-01-21T07:13:26.815Z,22.55
2023-01-21T07:15:53.563Z,27.85
2023-01-21T07:18:20.228Z,19.33
2023-01-21T07:20:46.899Z,28.95
2023-01-21T07:23:13.674Z,28.05
2023-01-21T07:25:40.384Z,27.70
2023-01-21T07:28:07.231Z,27.23
2023-01-21T07:30:33.981Z,22.55
2023-01-21T07:33:06.641Z,28.67
2023-01-21T07:35:33.439Z,22.50
2023-01-21T07:38:00.416Z,28.20
2023-01-21T07:40:27.165Z,23.95
2023-01-21T07:42:55.559Z,21.58
2023-01-21T07:45:23.528Z,27.48
2023-01-21T07:47:50.421Z,20.33
2023-01-21T07:50:17.288Z,20.67
2023-01-21T07:52:43.940Z,24.38
2023-01-21T07:55:13.952Z,24.48
2023-01-21T07:57:40.718Z,23.58
2023-01-21T08:00:08.046Z,21.67
2023-01-21T08:02:34.802Z,18.50
2023-01-21T08:05:01.464Z,18.10
2023-01-21T08:07:28.705Z,17.95
2023-01-21T08:09:55.322Z,22.55
2023-01-21T08:12:21.996Z,22.95
2023-01-21T08:14:48.672Z,23.42
2023-01-21T08:17:15.528Z,28.77
2023-01-21T08:19:42.361Z,20.85
2023-01-21T08:22:08.972Z,26.63
2023-01-21T08:24:35.696Z,25.33
2023-01-21T08:27:02.364Z,26.38
2023-01-21T08:29:29.187Z,23.42
2023-01-21T08:31:55.978Z,29.65
2023-01-21T08:34:22.895Z,26.98
2023-01-21T08:36:49.491Z,24.35
2023-01-21T08:39:16.560Z,26.40
2023-01-21T08:41:44.566Z,28.08
2023-01-21T08:44:11.742Z,27.98
2023-01-21T08:46:38.436Z,27.58
2023-01-21T08:49:05.350Z,29.83
2023-01-21T08:51:32.403Z,29.42
2023-01-21T08:53:59.230Z,27.02
2023-01-21T08:56:25.965Z,30.27
2023-01-21T08:58:58.773Z,24.30
2023-01-21T09:01:26.438Z,32.90
2023-01-21T09:03:58.610Z,30.60
2023-01-21T09:06:26.992Z,31.60
2023-01-21T09:08:54.017Z,23.95
2023-01-21T09:11:20.906Z,27.17
2023-01-21T09:13:47.624Z,34.00
2023-01-21T09:16:23.396Z,31.17
2023-01-21T09:18:50.414Z,36.33
2023-01-21T09:21:17.134Z,32.60
2023-01-21T09:23:44.503Z,30.75
2023-01-21T09:26:16.854Z,29.00
2023-01-21T09:28:46.006Z,29.92
2023-01-21T09:31:15.244Z,27.02
2023-01-21T09:33:44.129Z,27.13
2023-01-21T09:36:18.982Z,18.58
2023-01-21T09:38:47.568Z,26.30
2023-01-21T09:41:33.109Z,24.33
2023-01-21T09:44:21.473Z,23.05
2023-01-21T09:47:05.580Z,25.13
2023-01-21T09:49:42.571Z,20.90
2023-01-21T09:52:34.112Z,27.50
2023-01-21T09:55:02.635Z,25.33
2023-01-21T09:57:42.849Z,27.13
2023-01-21T10:00:30.944Z,19.27
2023-01-21T10:03:15.763Z,22.65
2023-01-21T10:08:46.506Z,24.67
2023-01-21T10:11:38.222Z,24.92
2023-01-21T10:14:29.617Z,22.38
2023-01-21T10:17:02.625Z,26.20
2023-01-21T10:19:36.555Z,26.52
2023-01-21T10:22:12.623Z,29.75
2023-01-21T10:24:48.406Z,19.40
2023-01-21T10:27:18.318Z,21.42
2023-01-21T10:29:49.477Z,27.00
2023-01-21T10:32:24.663Z,25.00
2023-01-21T10:34:54.058Z,22.73
2023-01-21T10:37:42.978Z,29.65
2023-01-21T10:40:43.412Z,28.92
2023-01-21T10:43:16.278Z,19.17
2023-01-21T10:46:27.646Z,29.98
2023-01-21T10:49:09.669Z,35.75
2023-01-21T10:52:02.940Z,40.15
2023-01-21T10:55:07.005Z,42.83
2023-01-21T10:58:00.415Z,30.73
2023-01-21T11:00:36.444Z,39.63
2023-01-21T11:03:12.567Z,39.30
2023-01-21T11:05:39.917Z,39.50
2023-01-21T11:08:06.976Z,40.35
2023-01-21T11:10:33.729Z,33.35
2023-01-21T11:13:00.369Z,39.15
2023-01-21T11:15:32.596Z,36.72
2023-01-21T11:17:59.696Z,33.00
2023-01-21T11:20:38.931Z,37.88
2023-01-21T11:23:07.012Z,34.65
2023-01-21T11:25:38.462Z,34.63
2023-01-21T11:28:05.768Z,30.30
2023-01-21T11:30:50.225Z,23.00
2023-01-21T11:33:25.494Z,37.40
2023-01-21T11:35:53.853Z,36.15
2023-01-21T11:38:25.079Z,35.78
2023-01-21T11:41:11.170Z,37.42
2023-01-21T11:43:56.029Z,36.15
2023-01-21T11:46:34.803Z,36.78
2023-01-21T11:49:07.693Z,31.63
2023-01-21T11:51:35.636Z,34.40
2023-01-21T11:54:21.920Z,34.40
2023-01-21T11:56:58.143Z,34.17
2023-01-21T11:59:38.907Z,38.70
2023-01-21T12:02:19.760Z,35.30
2023-01-21T12:04:56.949Z,28.10
2023-01-21T12:07:34.851Z,33.58
2023-01-21T12:10:13.567Z,36.67
2023-01-21T12:12:52.319Z,33.03
2023-01-21T12:15:35.505Z,31.08
2023-01-21T12:18:39.957Z,30.52
2023-01-21T12:21:36.998Z,30.45
2023-01-21T12:24:19.365Z,25.50
2023-01-21T12:26:55.770Z,27.33
2023-01-21T12:29:38.215Z,32.67
2023-01-21T12:32:22.200Z,34.35
2023-01-21T12:35:08.540Z,25.60
2023-01-21T12:37:48.733Z,31.63
2023-01-21T12:40:22.204Z,21.33
2023-01-21T12:42:54.120Z,29.75
2023-01-21T12:46:02.024Z,25.30
2023-01-21T12:48:38.595Z,29.77
2023-01-21T12:51:14.350Z,29.65
2023-01-21T12:53:53.188Z,27.50
2023-01-21T12:56:41.955Z,28.17
2023-01-21T12:59:08.542Z,22.90
2023-01-21T13:01:46.239Z,26.15
2023-01-21T13:04:30.290Z,26.60
2023-01-21T13:07:05.393Z,27.87
2023-01-21T13:09:46.400Z,26.10
2023-01-21T13:12:21.643Z,26.08
2023-01-21T13:15:02.778Z,23.13
2023-01-21T13:17:33.852Z,25.77
2023-01-21T13:20:00.716Z,22.52
2023-01-21T13:22:53.419Z,25.38
2023-01-21T13:25:26.896Z,26.55
2023-01-21T13:28:22.544Z,23.05
2023-01-21T13:31:26.413Z,25.25
2023-01-21T13:34:14.987Z,18.80
2023-01-21T13:37:13.569Z,19.40
2023-01-21T13:40:10.508Z,22.13
2023-01-21T13:42:50.665Z,26.45
2023-01-21T13:45:44.155Z,15.88
2023-01-21T13:48:28.798Z,19.38
2023-01-21T13:51:29.917Z,19.75
2023-01-21T13:54:11.560Z,28.15
2023-01-21T13:56:58.461Z,27.08
2023-01-21T13:59:36.567Z,19.27
2023-01-21T14:02:11.033Z,15.60
2023-01-21T14:04:44.810Z,15.35
2023-01-21T14:07:33.364Z,14.60
2023-01-21T14:10:03.928Z,18.27
2023-01-21T14:13:03.565Z,25.92
2023-01-21T14:15:50.386Z,24.80
2023-01-21T14:18:35.692Z,24.30
2023-01-21T14:21:29.884Z,24.92
2023-01-21T14:24:19.659Z,12.60
2023-01-21T14:27:00.748Z,22.67
2023-01-21T14:29:36.627Z,21.92
2023-01-21T14:32:08.344Z,23.02
2023-01-21T14:35:13.986Z,19.27
2023-01-21T14:38:13.488Z,25.83
2023-01-21T14:40:50.138Z,23.00
2023-01-21T14:43:31.941Z,26.17
2023-01-21T14:46:00.762Z,23.15
2023-01-21T14:48:42.072Z,26.33
2023-01-21T14:51:10.843Z,24.77
2023-01-21T14:53:51.077Z,19.30
2023-01-21T14:56:23.567Z,20.02
2023-01-21T14:58:59.696Z,23.63
2023-01-21T15:01:33.378Z,19.10
2023-01-21T15:04:05.215Z,20.27
2023-01-21T15:06:37.551Z,16.73
2023-01-21T15:09:05.634Z,18.58
2023-01-21T15:11:37.516Z,22.27
2023-01-21T15:14:11.232Z,19.38
2023-01-21T15:16:43.373Z,21.77
2023-01-21T15:19:09.962Z,19.10
2023-01-21T15:21:44.513Z,16.40
2023-01-21T15:27:14.249Z,19.87
2023-01-21T15:29:45.298Z,23.23
2023-01-21T15:32:24.260Z,18.25
2023-01-21T15:35:15.543Z,18.73
2023-01-21T15:37:46.331Z,24.33
2023-01-21T15:40:24.249Z,21.75
2023-01-21T15:43:16.569Z,21.35
2023-01-21T15:46:01.335Z,20.25
2023-01-21T15:49:07.069Z,23.42
2023-01-21T15:54:30.612Z,16.75
2023-01-21T15:57:24.889Z,17.95
2023-01-21T16:00:07.200Z,16.08
2023-01-21T16:03:00.540Z,22.20
2023-01-21T16:05:44.413Z,24.90
2023-01-21T16:08:26.136Z,19.65
2023-01-21T16:11:19.362Z,23.90
2023-01-21T16:14:53.929Z,16.98
2023-01-21T16:17:40.416Z,21.13
2023-01-21T16:20:09.154Z,21.15
2023-01-21T16:22:40.126Z,19.60
2023-01-21T16:25:13.277Z,18.02
2023-01-21T16:27:49.262Z,18.30
2023-01-21T16:30:20.924Z,22.75
2023-01-21T16:32:49.289Z,21.63
2023-01-21T16:35:16.370Z,21.98
2023-01-21T16:37:44.201Z,14.18
2023-01-21T16:40:25.436Z,18.65
2023-01-21T16:43:14.273Z,17.27
2023-01-21T16:45:50.141Z,17.27
2023-01-21T16:48:22.915Z,25.33
2023-01-21T16:50:49.964Z,24.85
2023-01-21T16:53:18.690Z,20.77
2023-01-21T16:55:47.716Z,20.77
2023-01-21T16:58:29.533Z,24.77
2023-01-21T17:01:10.860Z,21.73
2023-01-21T17:03:38.366Z,23.23
2023-01-21T17:06:10.888Z,20.48
2023-01-21T17:08:39.438Z,21.70
2023-01-21T17:11:11.542Z,25.38
2023-01-21T17:13:42.015Z,23.02
2023-01-21T17:16:24.396Z,22.13
2023-01-21T17:19:04.673Z,21.92
2023-01-21T17:21:40.011Z,25.33
2023-01-21T17:24:16.743Z,22.75
2023-01-21T17:26:48.060Z,26.25
2023-01-21T17:29:26.794Z,23.83
2023-01-21T17:32:00.947Z,22.50
2023-01-21T17:34:37.841Z,24.48
2023-01-21T17:37:41.228Z,21.17
2023-01-21T17:40:29.058Z,23.80
2023-01-21T17:42:57.336Z,27.33
2023-01-21T17:45:33.274Z,25.92
2023-01-21T17:48:11.757Z,25.50
2023-01-21T17:50:46.501Z,25.13
2023-01-21T17:53:27.740Z,25.20
2023-01-21T17:56:05.782Z,21.77
2023-01-21T17:58:32.580Z,23.65
2023-01-21T18:01:03.880Z,21.30
2023-01-21T18:03:30.691Z,20.38
2023-01-21T18:05:57.849Z,22.88
2023-01-21T18:08:24.695Z,16.55
2023-01-21T18:10:51.576Z,24.35
2023-01-21T18:13:20.483Z,18.98
2023-01-21T18:15:54.808Z,22.02
2023-01-21T18:18:25.931Z,15.07
2023-01-21T18:20:52.876Z,22.02
2023-01-21T18:23:19.760Z,23.02
2023-01-21T18:25:52.425Z,19.95
2023-01-21T18:28:21.659Z,17.20
2023-01-21T18:30:48.979Z,17.40
2023-01-21T18:33:15.940Z,20.67
2023-01-21T18:35:47.661Z,21.40
2023-01-21T18:38:26.968Z,25.23
2023-01-21T18:40:55.206Z,19.40
2023-01-21T18:43:22.066Z,20.67
2023-01-21T18:45:48.894Z,24.60
2023-01-21T18:48:17.076Z,22.85
2023-01-21T18:50:43.730Z,24.50
2023-01-21T18:53:12.017Z,23.13
2023-01-21T18:55:43.886Z,24.90
2023-01-21T18:58:14.026Z,17.85
2023-01-21T19:00:41.531Z,20.13
2023-01-21T19:03:12.293Z,19.08
2023-01-21T19:05:40.715Z,22.58
2023-01-21T19:08:17.414Z,22.67
2023-01-21T19:10:44.265Z,24.83
2023-01-21T19:13:12.023Z,19.00
2023-01-21T19:15:38.915Z,24.17
2023-01-21T19:18:14.714Z,23.55
2023-01-21T19:20:42.156Z,22.20
2023-01-21T19:23:15.813Z,26.20
2023-01-21T19:25:47.165Z,16.60
2023-01-21T19:28:13.848Z,19.88
2023-01-21T19:30:45.134Z,22.40
2023-01-21T19:33:12.736Z,24.80
2023-01-21T19:35:42.992Z,21.88
2023-01-21T19:38:16.277Z,23.13
2023-01-21T19:40:43.054Z,23.95
2023-01-21T19:43:14.337Z,23.67
2023-01-21T19:45:41.723Z,17.17
2023-01-21T19:48:13.988Z,23.63
2023-01-21T19:50:41.038Z,18.23
2023-01-21T19:53:10.577Z,20.60
2023-01-21T19:55:40.105Z,21.73
2023-01-21T19:58:24.449Z,18.55
2023-01-21T20:00:53.581Z,22.33
2023-01-21T20:03:25.409Z,19.92
2023-01-21T20:05:57.221Z,19.55
2023-01-21T20:08:27.203Z,21.98
2023-01-21T20:10:53.976Z,19.67
2023-01-21T20:13:20.850Z,25.05
2023-01-21T20:15:51.454Z,24.25
2023-01-21T20:18:24.455Z,16.73
2023-01-21T20:20:52.597Z,23.75
2023-01-21T20:23:20.942Z,27.17
2023-01-21T20:25:56.929Z,25.58
2023-01-21T20:28:33.987Z,20.38
2023-01-21T20:31:03.460Z,23.58
2023-01-21T20:33:30.182Z,24.15
2023-01-21T20:35:56.981Z,24.60
2023-01-21T20:38:30.079Z,20.90
2023-01-21T20:41:01.056Z,24.42
2023-01-21T20:43:28.681Z,25.52
2023-01-21T20:45:59.481Z,17.73
2023-01-21T20:48:29.084Z,22.02
2023-01-21T20:50:56.116Z,24.75
2023-01-21T20:53:22.752Z,24.30
2023-01-21T20:55:50.911Z,15.65
2023-01-21T20:58:19.368Z,20.60
2023-01-21T21:00:46.800Z,21.25
2023-01-21T21:03:18.150Z,24.17
2023-01-21T21:05:48.679Z,24.55
2023-01-21T21:08:19.144Z,16.15
2023-01-21T21:10:46.661Z,24.25
2023-01-21T21:13:14.178Z,25.60
2023-01-21T21:15:42.041Z,27.02
2023-01-21T21:18:12.672Z,25.25
2023-01-21T21:20:39.951Z,25.45
2023-01-21T21:23:07.835Z,24.23
2023-01-21T21:25:40.126Z,23.08
2023-01-21T21:28:06.815Z,25.70
2023-01-21T21:30:34.290Z,25.00
2023-01-21T21:33:01.717Z,25.08
2023-01-21T21:35:34.263Z,28.20
2023-01-21T21:38:11.536Z,20.77
2023-01-21T21:40:38.662Z,15.93
2023-01-21T21:43:24.159Z,28.25
2023-01-21T21:46:09.497Z,24.00
2023-01-21T21:48:39.289Z,18.08
2023-01-21T21:51:08.538Z,21.13
2023-01-21T21:53:36.327Z,19.90
2023-01-21T21:56:05.616Z,19.90
2023-01-21T21:58:32.315Z,24.48
2023-01-21T22:01:22.751Z,24.23
2023-01-21T22:03:49.657Z,14.57
2023-01-21T22:06:21.064Z,27.92
2023-01-21T22:08:48.422Z,19.30
2023-01-21T22:11:19.836Z,22.83
2023-01-21T22:13:51.295Z,30.15
2023-01-21T22:16:20.891Z,22.00
2023-01-21T22:18:47.868Z,32.85
2023-01-21T22:21:17.649Z,27.13
2023-01-21T22:23:46.917Z,23.17
2023-01-21T22:26:17.565Z,23.10
2023-01-21T22:28:44.610Z,26.42
2023-01-21T22:31:17.716Z,25.73
2023-01-21T22:33:44.953Z,22.40
2023-01-21T22:36:14.673Z,28.77
2023-01-21T22:38:42.849Z,24.75
2023-01-21T22:41:11.869Z,14.55
2023-01-21T22:43:44.771Z,13.10
2023-01-21T22:46:14.115Z,23.02
2023-01-21T22:48:42.227Z,12.77
2023-01-21T22:51:11.910Z,23.20
2023-01-21T22:53:43.917Z,12.32
2023-01-21T22:56:12.941Z,15.23
2023-01-21T22:58:39.760Z,22.90
2023-01-21T23:01:06.866Z,20.70
2023-01-21T23:03:34.125Z,18.75
2023-01-21T23:06:08.356Z,14.50
2023-01-21T23:08:37.818Z,20.48
2023-01-21T23:11:06.322Z,17.42
2023-01-21T23:13:33.885Z,17.08
2023-01-21T23:16:01.031Z,20.55
2023-01-21T23:18:29.534Z,17.60
2023-01-21T23:20:56.642Z,16.10
2023-01-21T23:23:24.757Z,13.25
2023-01-21T23:25:51.951Z,16.83
2023-01-21T23:28:18.688Z,18.95
2023-01-21T23:30:46.510Z,15.30
2023-01-21T23:33:13.428Z,16.42
2023-01-21T23:35:40.091Z,16.42
2023-01-21T23:38:06.791Z,19.75
2023-01-21T23:40:33.438Z,14.40
2023-01-21T23:43:00.118Z,16.52
2023-01-21T23:45:26.781Z,18.25
2023-01-21T23:47:54.992Z,14.75
2023-01-21T23:50:21.755Z,18.92
2023-01-21T23:52:48.428Z,14.88
2023-01-21T23:55:15.194Z,16.83
2023-01-21T23:57:41.813Z,16.50
